createdAt,value
2023-04-12T00:00:42.833Z,99189.13
2023-04-12T00:03:10.523Z,99181.66
2023-04-12T00:05:38.119Z,99180.25
2023-04-12T00:08:06.201Z,99176.41
2023-04-12T00:10:33.612Z,99170.97
2023-04-12T00:13:02.611Z,99159.47
2023-04-12T00:15:30.040Z,99149.56
2023-04-12T00:17:57.567Z,99138.28
2023-04-12T00:20:25.114Z,99136.06
2023-04-12T00:22:53.800Z,99133.63
2023-04-12T00:25:21.528Z,99121.50
2023-04-12T00:27:49.114Z,99121.28
2023-04-12T00:30:17.941Z,99106.16
2023-04-12T00:32:45.600Z,99103.31
2023-04-12T00:35:13.020Z,99094.41
2023-04-12T00:37:40.524Z,99095.19
2023-04-12T00:40:10.217Z,99101.25
2023-04-12T00:42:38.461Z,99083.66
2023-04-12T00:45:07.703Z,99101.41
2023-04-12T00:47:38.173Z,99099.56
2023-04-12T00:50:06.785Z,99105.84
2023-04-12T00:52:35.453Z,99106.19
2023-04-12T00:55:04.596Z,99111.31
2023-04-12T00:57:37.614Z,99119.34
2023-04-12T01:00:05.944Z,99114.31
2023-04-12T01:02:35.140Z,99116.59
2023-04-12T01:05:04.106Z,99116.56
2023-04-12T01:07:44.808Z,99106.66
2023-04-12T01:10:27.819Z,99108.06
2023-04-12T01:13:06.261Z,99105.44
2023-04-12T01:15:38.234Z,99091.91
2023-04-12T01:18:09.735Z,99074.94
2023-04-12T01:20:44.477Z,99084.00
2023-04-12T01:23:29.280Z,99087.03
2023-04-12T01:26:10.816Z,99075.66
2023-04-12T01:28:43.360Z,99067.97
2023-04-12T01:31:12.799Z,99068.97
2023-04-12T01:33:44.135Z,99051.63
2023-04-12T01:36:14.307Z,99066.09
2023-04-12T01:38:45.391Z,99052.81
2023-04-12T01:41:13.676Z,99047.66
2023-04-12T01:43:43.431Z,99046.59
2023-04-12T01:46:11.787Z,99041.91
2023-04-12T01:48:39.969Z,99027.84
2023-04-12T01:51:11.596Z,99026.25
2023-04-12T01:53:48.380Z,99024.03
2023-04-12T01:56:17.853Z,99000.56
2023-04-12T01:58:49.483Z,98982.19
2023-04-12T02:01:19.859Z,98980.06
2023-04-12T02:03:49.695Z,98976.41
2023-04-12T02:06:19.772Z,98974.03
2023-04-12T02:08:47.809Z,98973.00
2023-04-12T02:11:15.594Z,98962.78
2023-04-12T02:13:42.957Z,98967.25
2023-04-12T02:16:13.871Z,98971.56
2023-04-12T02:18:42.176Z,98964.91
2023-04-12T02:21:09.745Z,98960.31
2023-04-12T02:23:37.120Z,98955.00
2023-04-12T02:26:04.551Z,98954.13
2023-04-12T02:28:33.843Z,98955.94
2023-04-12T02:31:01.521Z,98949.34
2023-04-12T02:33:31.301Z,98959.66
2023-04-12T02:35:59.319Z,98961.84
2023-04-12T02:38:26.984Z,98962.38
2023-04-12T02:40:54.363Z,98954.34
2023-04-12T02:43:23.943Z,98952.88
2023-04-12T02:45:51.631Z,98961.19
2023-04-12T02:48:19.038Z,98969.59
2023-04-12T02:50:47.722Z,98988.22
2023-04-12T02:53:16.662Z,99004.06
2023-04-12T02:55:44.651Z,99008.16
2023-04-12T02:58:12.760Z,99034.66
2023-04-12T03:00:42.292Z,99064.44
2023-04-12T03:03:09.881Z,99079.25
2023-04-12T03:05:37.967Z,99089.69
2023-04-12T03:08:07.021Z,99098.44
2023-04-12T03:10:34.407Z,99113.03
2023-04-12T03:13:01.868Z,99117.88
2023-04-12T03:15:29.439Z,99127.53
2023-04-12T03:17:56.889Z,99126.94
2023-04-12T03:20:25.277Z,99131.75
2023-04-12T03:22:52.642Z,99138.44
2023-04-12T03:25:21.334Z,99133.38
2023-04-12T03:27:48.744Z,99137.84
2023-04-12T03:30:16.181Z,99134.97
2023-04-12T03:32:46.880Z,99130.28
2023-04-12T03:35:14.575Z,99133.06
2023-04-12T03:37:43.766Z,99128.66
2023-04-12T03:40:11.753Z,99125.22
2023-04-12T03:42:40.577Z,99128.63
2023-04-12T03:45:08.937Z,99141.94
2023-04-12T03:47:37.093Z,99137.28
2023-04-12T03:50:11.380Z,99142.19
2023-04-12T03:52:39.742Z,99149.22
2023-04-12T03:55:08.254Z,99144.03
2023-04-12T03:57:35.827Z,99142.19
2023-04-12T04:00:05.959Z,99131.53
2023-04-12T04:02:33.511Z,99124.19
2023-04-12T04:05:02.397Z,99119.00
2023-04-12T04:07:29.915Z,99114.19
2023-04-12T04:09:57.491Z,99119.81
2023-04-12T04:12:24.953Z,99099.16
2023-04-12T04:14:52.310Z,99108.13
2023-04-12T04:17:21.065Z,99095.50
2023-04-12T04:19:52.590Z,99091.88
2023-04-12T04:22:21.464Z,99075.13
2023-04-12T04:24:50.069Z,99075.72
2023-04-12T04:27:17.490Z,99068.16
2023-04-12T04:29:45.566Z,99070.53
2023-04-12T04:32:13.389Z,99069.94
2023-04-12T04:34:42.204Z,99066.66
2023-04-12T04:37:09.740Z,99063.41
2023-04-12T04:39:38.863Z,99064.19
2023-04-12T04:42:06.895Z,99057.63
2023-04-12T04:44:36.098Z,99042.28
2023-04-12T04:47:04.940Z,99049.84
2023-04-12T04:49:33.656Z,99046.06
2023-04-12T04:52:02.355Z,99051.38
2023-04-12T04:54:33.779Z,99036.78
2023-04-12T04:57:01.581Z,99026.03
2023-04-12T04:59:28.981Z,99018.28
2023-04-12T05:01:56.360Z,99020.03
2023-04-12T05:04:23.892Z,99018.81
2023-04-12T05:06:51.393Z,99004.72
2023-04-12T05:09:20.069Z,98990.00
2023-04-12T05:11:47.493Z,98986.47
2023-04-12T05:14:14.922Z,98974.47
2023-04-12T05:16:42.417Z,98967.50
2023-04-12T05:19:10.047Z,98969.84
2023-04-12T05:21:37.545Z,98956.06
2023-04-12T05:24:05.246Z,98947.53
2023-04-12T05:26:34.301Z,98943.44
2023-04-12T05:29:02.095Z,98943.69
2023-04-12T05:31:29.591Z,98929.78
2023-04-12T05:33:56.994Z,98923.94
2023-04-12T05:36:24.353Z,98922.50
2023-04-12T05:38:52.259Z,98913.28
2023-04-12T05:41:20.814Z,98913.56
2023-04-12T05:43:49.682Z,98921.38
2023-04-12T05:46:17.141Z,98928.06
2023-04-12T05:48:44.684Z,98929.28
2023-04-12T05:51:12.060Z,98925.81
2023-04-12T05:53:39.408Z,98934.75
2023-04-12T05:56:07.625Z,98933.88
2023-04-12T05:58:35.029Z,98929.94
2023-04-12T06:01:04.310Z,98933.97
2023-04-12T06:03:32.226Z,98933.22
2023-04-12T06:05:59.760Z,98932.09
2023-04-12T06:08:29.421Z,98922.03
2023-04-12T06:10:56.838Z,98912.13
2023-04-12T06:13:24.402Z,98910.50
2023-04-12T06:15:52.025Z,98904.03
2023-04-12T06:18:20.740Z,98887.47
2023-04-12T06:20:48.188Z,98879.44
2023-04-12T06:23:21.629Z,98865.97
2023-04-12T06:25:53.448Z,98871.44
2023-04-12T06:28:20.872Z,98853.09
2023-04-12T06:30:48.264Z,98854.06
2023-04-12T06:33:15.907Z,98849.59
2023-04-12T06:35:44.633Z,98831.00
2023-04-12T06:38:12.071Z,98827.19
2023-04-12T06:40:39.815Z,98824.81
2023-04-12T06:43:07.306Z,98822.69
2023-04-12T06:45:34.692Z,98814.47
2023-04-12T06:48:02.177Z,98822.19
2023-04-12T06:50:29.559Z,98825.16
2023-04-12T06:52:58.294Z,98814.41
2023-04-12T06:55:27.065Z,98808.84
2023-04-12T06:57:54.460Z,98814.44
2023-04-12T07:00:22.499Z,98816.56
2023-04-12T07:02:49.971Z,98821.38
2023-04-12T07:05:17.633Z,98811.53
2023-04-12T07:07:45.463Z,98807.00
2023-04-12T07:10:14.335Z,98803.00
2023-04-12T07:12:42.435Z,98801.13
2023-04-12T07:15:10.527Z,98790.75
2023-04-12T07:17:41.010Z,98788.09
2023-04-12T07:20:09.549Z,98781.97
2023-04-12T07:22:39.044Z,98775.59
2023-04-12T07:25:10.131Z,98782.75
2023-04-12T07:27:39.161Z,98760.88
2023-04-12T07:30:11.799Z,98755.06
2023-04-12T07:32:39.296Z,98751.31
2023-04-12T07:35:07.675Z,98748.69
2023-04-12T07:37:35.335Z,98747.06
2023-04-12T07:40:04.211Z,98733.47
2023-04-12T07:42:31.676Z,98719.88
2023-04-12T07:45:01.764Z,98710.31
2023-04-12T07:47:30.340Z,98703.13
2023-04-12T07:49:58.829Z,98691.53
2023-04-12T07:52:27.537Z,98674.22
2023-04-12T07:54:55.415Z,98663.84
2023-04-12T07:57:23.429Z,98658.53
2023-04-12T07:59:51.137Z,98639.19
2023-04-12T08:02:26.071Z,98627.47
2023-04-12T08:04:55.734Z,98619.78
2023-04-12T08:07:24.645Z,98613.13
2023-04-12T08:09:52.098Z,98578.88
2023-04-12T08:12:21.190Z,98585.25
2023-04-12T08:14:51.161Z,98578.06
2023-04-12T08:17:19.886Z,98567.75
2023-04-12T08:19:47.360Z,98554.50
2023-04-12T08:22:15.062Z,98542.56
2023-04-12T08:24:42.653Z,98535.81
2023-04-12T08:27:13.882Z,98527.53
2023-04-12T08:29:41.438Z,98518.75
2023-04-12T08:32:12.557Z,98502.84
2023-04-12T08:34:43.709Z,98482.16
2023-04-12T08:37:16.293Z,98465.94
2023-04-12T08:39:43.808Z,98461.72
2023-04-12T08:42:11.290Z,98450.91
2023-04-12T08:44:45.535Z,98447.19
2023-04-12T08:47:13.158Z,98434.69
2023-04-12T08:49:45.832Z,98418.03
2023-04-12T08:52:14.962Z,98415.16
2023-04-12T08:54:42.375Z,98401.13
2023-04-12T08:57:10.311Z,98404.56
2023-04-12T08:59:39.100Z,98399.25
2023-04-12T09:02:06.739Z,98397.97
2023-04-12T09:04:50.480Z,98386.28
2023-04-12T09:07:23.866Z,98391.59
2023-04-12T09:09:59.487Z,98389.22
2023-04-12T09:12:28.531Z,98374.31
2023-04-12T09:15:13.931Z,98391.84
2023-04-12T09:17:47.536Z,98397.16
2023-04-12T09:20:29.347Z,98380.09
2023-04-12T09:23:05.108Z,98384.56
2023-04-12T09:25:47.237Z,98383.19
2023-04-12T09:28:24.497Z,98385.41
2023-04-12T09:30:54.036Z,98375.56
2023-04-12T09:33:23.021Z,98360.22
2023-04-12T09:35:53.119Z,98367.72
2023-04-12T09:38:22.576Z,98350.69
2023-04-12T09:40:54.967Z,98337.97
2023-04-12T09:43:37.003Z,98328.69
2023-04-12T09:46:11.641Z,98321.25
2023-04-12T09:48:39.531Z,98319.69
2023-04-12T09:51:10.656Z,98328.97
2023-04-12T09:53:43.933Z,98315.16
2023-04-12T09:56:16.017Z,98304.25
2023-04-12T09:58:45.841Z,98302.38
2023-04-12T10:01:17.725Z,98304.50
2023-04-12T10:03:48.579Z,98310.31
2023-04-12T10:06:18.320Z,98309.50
2023-04-12T10:08:47.706Z,98319.38
2023-04-12T10:11:15.836Z,98318.50
2023-04-12T10:13:44.145Z,98302.78
2023-04-12T10:16:12.644Z,98297.94
2023-04-12T10:18:40.552Z,98289.38
2023-04-12T10:21:08.791Z,98289.22
2023-04-12T10:23:36.330Z,98296.22
2023-04-12T10:26:06.168Z,98290.88
2023-04-12T10:28:33.562Z,98284.19
2023-04-12T10:31:01.230Z,98291.38
2023-04-12T10:33:30.712Z,98297.44
2023-04-12T10:36:02.908Z,98306.28
2023-04-12T10:38:37.335Z,98307.34
2023-04-12T10:41:12.811Z,98299.53
2023-04-12T10:43:40.569Z,98299.66
2023-04-12T10:46:08.019Z,98311.63
2023-04-12T10:48:36.466Z,98311.84
2023-04-12T10:51:14.974Z,98319.97
2023-04-12T10:53:42.675Z,98315.06
2023-04-12T10:56:40.738Z,98313.97
2023-04-12T10:59:09.155Z,98323.41
2023-04-12T11:01:38.897Z,98327.41
2023-04-12T11:04:13.968Z,98324.81
2023-04-12T11:06:49.281Z,98335.63
2023-04-12T11:09:21.866Z,98328.03
2023-04-12T11:11:50.673Z,98345.97
2023-04-12T11:14:19.028Z,98336.06
2023-04-12T11:17:19.846Z,98330.31
2023-04-12T11:19:52.242Z,98340.19
2023-04-12T11:22:21.133Z,98347.19
2023-04-12T11:24:50.455Z,98361.53
2023-04-12T11:27:20.401Z,98351.31
2023-04-12T11:29:49.878Z,98348.34
2023-04-12T11:32:19.483Z,98334.44
2023-04-12T11:34:48.225Z,98328.72
2023-04-12T11:37:15.809Z,98312.75
2023-04-12T11:39:45.097Z,98306.19
2023-04-12T11:42:17.047Z,98304.75
2023-04-12T11:47:18.510Z,98290.84
2023-04-12T11:49:48.806Z,98292.19
2023-04-12T11:52:16.996Z,98291.00
2023-04-12T11:54:45.694Z,98289.22
2023-04-12T11:57:14.838Z,98296.94
2023-04-12T11:59:46.527Z,98286.13
2023-04-12T12:02:22.559Z,98292.19
2023-04-12T12:04:51.914Z,98282.69
2023-04-12T12:07:21.900Z,98282.38
2023-04-12T12:09:51.118Z,98288.47
2023-04-12T12:12:19.256Z,98319.13
2023-04-12T12:14:48.244Z,98315.84
2023-04-12T12:17:17.424Z,98332.97
2023-04-12T12:19:47.008Z,98326.94
2023-04-12T12:22:18.196Z,98325.16
2023-04-12T12:24:46.874Z,98311.06
2023-04-12T12:27:14.571Z,98320.91
2023-04-12T12:29:42.395Z,98307.19
2023-04-12T12:32:14.833Z,98302.84
2023-04-12T12:34:44.873Z,98304.41
2023-04-12T12:37:14.185Z,98304.03
2023-04-12T12:40:00.970Z,98309.84
2023-04-12T12:42:29.054Z,98320.03
2023-04-12T12:44:59.201Z,98316.19
2023-04-12T12:47:28.116Z,98305.28
2023-04-12T12:49:55.493Z,98304.22
2023-04-12T12:52:22.936Z,98310.91
2023-04-12T12:54:50.357Z,98302.81
2023-04-12T12:57:17.724Z,98305.75
2023-04-12T12:59:45.248Z,98310.81
2023-04-12T13:02:15.506Z,98315.75
2023-04-12T13:04:44.655Z,98311.09
2023-04-12T13:07:12.178Z,98302.78
2023-04-12T13:09:39.540Z,98300.59
2023-04-12T13:12:06.995Z,98306.09
2023-04-12T13:14:34.381Z,98295.84
2023-04-12T13:17:01.766Z,98259.41
2023-04-12T13:19:29.120Z,98306.75
2023-04-12T13:21:58.100Z,98310.47
2023-04-12T13:24:25.647Z,98318.53
2023-04-12T13:26:53.021Z,98306.84
2023-04-12T13:29:20.393Z,98304.56
2023-04-12T13:31:47.802Z,98305.28
2023-04-12T13:34:15.714Z,98295.09
2023-04-12T13:36:44.634Z,98291.84
2023-04-12T13:39:13.349Z,98285.97
2023-04-12T13:41:40.690Z,98261.75
2023-04-12T13:44:08.083Z,98269.47
2023-04-12T13:46:36.651Z,98267.75
2023-04-12T13:49:04.091Z,98271.00
2023-04-12T13:51:32.534Z,98278.28
2023-04-12T13:54:00.213Z,98270.88
2023-04-12T13:56:31.791Z,98273.31
2023-04-12T13:58:59.711Z,98275.34
2023-04-12T14:01:27.387Z,98273.25
2023-04-12T14:03:55.645Z,98265.47
2023-04-12T14:06:22.993Z,98261.81
2023-04-12T14:08:51.022Z,98258.22
2023-04-12T14:11:18.390Z,98229.56
2023-04-12T14:13:47.051Z,98233.34
2023-04-12T14:16:14.418Z,98224.66
2023-04-12T14:18:41.859Z,98230.50
2023-04-12T14:21:10.329Z,98226.81
2023-04-12T14:23:37.674Z,98228.91
2023-04-12T14:26:05.324Z,98249.22
2023-04-12T14:28:33.498Z,98262.78
2023-04-12T14:31:04.352Z,98269.03
2023-04-12T14:33:33.985Z,98255.09
2023-04-12T14:36:04.920Z,98272.03
2023-04-12T14:38:32.552Z,98267.13
2023-04-12T14:41:00.015Z,98265.25
2023-04-12T14:43:28.513Z,98270.09
2023-04-12T14:45:56.062Z,98255.22
2023-04-12T14:48:25.004Z,98250.88
2023-04-12T14:50:52.545Z,98246.97
2023-04-12T14:53:21.016Z,98241.16
2023-04-12T14:55:48.654Z,98237.38
2023-04-12T14:58:16.264Z,98237.91
2023-04-12T15:00:43.697Z,98226.00
2023-04-12T15:03:11.391Z,98222.41
2023-04-12T15:05:40.213Z,98189.06
2023-04-12T15:08:07.829Z,98180.50
2023-04-12T15:10:35.233Z,98158.19
2023-04-12T15:13:02.594Z,98139.50
2023-04-12T15:15:30.078Z,98124.91
2023-04-12T15:17:57.488Z,98118.72
2023-04-12T15:20:24.867Z,98120.56
2023-04-12T15:22:53.560Z,98099.19
2023-04-12T15:25:22.034Z,98082.66
2023-04-12T15:27:52.028Z,98043.69
2023-04-12T15:30:19.385Z,98018.75
2023-04-12T15:32:47.163Z,98001.63
2023-04-12T15:35:26.154Z,98020.28
2023-04-12T15:37:55.878Z,98017.50
2023-04-12T15:40:24.149Z,98036.47
2023-04-12T15:42:51.559Z,98038.13
2023-04-12T15:45:18.927Z,98037.75
2023-04-12T15:47:46.879Z,98050.13
2023-04-12T15:50:14.298Z,98060.91
2023-04-12T15:52:42.990Z,98057.09
2023-04-12T15:55:12.530Z,98073.84
2023-04-12T15:57:40.062Z,98087.34
2023-04-12T16:00:20.842Z,98093.97
2023-04-12T16:02:53.353Z,98127.94
2023-04-12T16:05:21.310Z,98136.44
2023-04-12T16:07:50.893Z,98136.38
2023-04-12T16:10:22.222Z,98134.56
2023-04-12T16:12:50.720Z,98118.66
2023-04-12T16:15:22.228Z,98122.69
2023-04-12T16:17:53.050Z,98121.63
2023-04-12T16:20:21.639Z,98113.53
2023-04-12T16:22:49.882Z,98113.69
2023-04-12T16:25:17.718Z,98111.28
2023-04-12T16:27:46.493Z,98105.44
2023-04-12T16:30:15.572Z,98103.91
2023-04-12T16:32:43.276Z,98123.84
2023-04-12T16:35:10.698Z,98136.41
2023-04-12T16:37:38.690Z,98122.16
2023-04-12T16:40:10.347Z,98130.72
2023-04-12T16:42:37.692Z,98109.44
2023-04-12T16:45:10.183Z,98078.09
2023-04-12T16:47:38.061Z,98072.97
2023-04-12T16:50:08.554Z,98069.25
2023-04-12T16:52:37.540Z,98070.63
2023-04-12T16:55:05.818Z,98074.00
2023-04-12T16:57:33.671Z,98073.03
2023-04-12T17:00:01.070Z,98082.13
2023-04-12T17:02:29.897Z,98105.16
2023-04-12T17:04:57.361Z,98127.72
2023-04-12T17:07:24.741Z,98137.16
2023-04-12T17:09:52.084Z,98135.19
2023-04-12T17:12:19.421Z,98125.97
2023-04-12T17:14:47.275Z,98116.19
2023-04-12T17:17:14.843Z,98111.31
2023-04-12T17:19:45.478Z,98116.84
2023-04-12T17:22:12.878Z,98137.41
2023-04-12T17:24:40.933Z,98144.06
2023-04-12T17:27:08.550Z,98141.72
2023-04-12T17:29:35.936Z,98138.00
2023-04-12T17:32:04.067Z,98125.25
2023-04-12T17:34:31.534Z,98113.50
2023-04-12T17:37:01.363Z,98121.47
2023-04-12T17:39:28.698Z,98130.75
2023-04-12T17:41:57.922Z,98153.28
2023-04-12T17:44:26.420Z,98151.53
2023-04-12T17:46:53.903Z,98163.81
2023-04-12T17:49:22.163Z,98162.00
2023-04-12T17:51:49.519Z,98160.91
2023-04-12T17:54:18.186Z,98154.00
2023-04-12T17:56:45.529Z,98133.63
2023-04-12T17:59:13.511Z,98129.66
2023-04-12T18:01:42.163Z,98146.59
2023-04-12T18:04:09.809Z,98147.94
2023-04-12T18:06:39.087Z,98156.13
2023-04-12T18:09:07.083Z,98156.66
2023-04-12T18:11:38.598Z,98160.13
2023-04-12T18:14:06.470Z,98158.25
2023-04-12T18:16:33.912Z,98155.06
2023-04-12T18:19:03.370Z,98164.56
2023-04-12T18:21:31.956Z,98167.78
2023-04-12T18:23:59.694Z,98163.78
2023-04-12T18:26:27.512Z,98163.25
2023-04-12T18:28:56.427Z,98165.66
2023-04-12T18:31:24.406Z,98160.88
2023-04-12T18:33:51.963Z,98174.38
2023-04-12T18:36:19.306Z,98177.81
2023-04-12T18:38:46.978Z,98168.50
2023-04-12T18:41:15.453Z,98163.69
2023-04-12T18:43:42.922Z,98166.53
2023-04-12T18:46:17.763Z,98162.28
2023-04-12T18:48:47.798Z,98169.09
2023-04-12T18:51:15.648Z,98178.31
2023-04-12T18:53:43.075Z,98189.63
2023-04-12T18:56:11.164Z,98195.38
2023-04-12T18:58:53.816Z,98198.78
2023-04-12T19:01:24.914Z,98212.81
2023-04-12T19:03:52.819Z,98221.53
2023-04-12T19:06:20.527Z,98226.41
2023-04-12T19:08:49.601Z,98218.38
2023-04-12T19:11:16.994Z,98233.53
2023-04-12T19:13:44.359Z,98243.56
2023-04-12T19:16:12.449Z,98249.03
2023-04-12T19:18:41.310Z,98254.78
2023-04-12T19:21:08.673Z,98234.03
2023-04-12T19:23:36.985Z,98258.06
2023-04-12T19:26:05.516Z,98253.72
2023-04-12T19:28:34.296Z,98252.22
2023-04-12T19:31:05.235Z,98273.38
2023-04-12T19:33:32.622Z,98279.78
2023-04-12T19:36:01.715Z,98280.22
2023-04-12T19:38:29.187Z,98280.72
2023-04-12T19:40:56.545Z,98272.84
2023-04-12T19:43:25.373Z,98280.53
2023-04-12T19:45:53.256Z,98269.91
2023-04-12T19:48:20.812Z,98282.31
2023-04-12T19:50:48.988Z,98270.81
2023-04-12T19:53:18.182Z,98274.38
2023-04-12T19:55:45.706Z,98279.59
2023-04-12T19:58:13.463Z,98286.13
2023-04-12T20:00:41.107Z,98293.16
2023-04-12T20:03:09.215Z,98301.09
2023-04-12T20:05:37.517Z,98305.88
2023-04-12T20:08:04.889Z,98310.25
2023-04-12T20:10:33.574Z,98320.16
2023-04-12T20:13:01.021Z,98325.03
2023-04-12T20:15:28.390Z,98325.00
2023-04-12T20:17:56.583Z,98339.72
2023-04-12T20:20:23.961Z,98337.72
2023-04-12T20:22:52.626Z,98349.97
2023-04-12T20:25:21.003Z,98351.63
2023-04-12T20:27:52.176Z,98349.72
2023-04-12T20:30:20.764Z,98353.34
2023-04-12T20:32:48.663Z,98353.56
2023-04-12T20:35:17.907Z,98361.47
2023-04-12T20:37:49.422Z,98358.59
2023-04-12T20:40:17.020Z,98358.38
2023-04-12T20:42:45.171Z,98361.00
2023-04-12T20:45:17.654Z,98364.19
2023-04-12T20:47:45.128Z,98371.63
2023-04-12T20:50:12.558Z,98382.72
2023-04-12T20:52:40.068Z,98391.97
2023-04-12T20:55:08.032Z,98385.09
2023-04-12T20:57:35.846Z,98389.09
2023-04-12T21:00:12.360Z,98396.75
2023-04-12T21:02:41.189Z,98381.03
2023-04-12T21:05:08.898Z,98389.97
2023-04-12T21:07:36.371Z,98391.41
2023-04-12T21:10:03.893Z,98365.47
2023-04-12T21:12:32.215Z,98398.63
2023-04-12T21:15:00.651Z,98420.88
2023-04-12T21:17:29.951Z,98421.34
2023-04-12T21:19:59.070Z,98410.63
2023-04-12T21:22:26.561Z,98424.56
2023-04-12T21:24:54.270Z,98434.19
2023-04-12T21:27:21.613Z,98440.94
2023-04-12T21:29:50.055Z,98449.41
2023-04-12T21:32:17.591Z,98457.94
2023-04-12T21:34:45.287Z,98467.91
2023-04-12T21:37:13.992Z,98475.81
2023-04-12T21:39:43.429Z,98482.09
2023-04-12T21:42:10.920Z,98483.03
2023-04-12T21:44:39.524Z,98481.91
2023-04-12T21:47:06.865Z,98489.34
2023-04-12T21:49:34.411Z,98484.53
2023-04-12T21:52:01.796Z,98488.09
2023-04-12T21:54:31.353Z,98490.50
2023-04-12T21:56:58.711Z,98447.63
2023-04-12T21:59:26.368Z,98469.13
2023-04-12T22:01:53.813Z,98489.34
2023-04-12T22:04:21.287Z,98483.94
2023-04-12T22:06:50.736Z,98500.06
2023-04-12T22:09:18.622Z,98499.81
2023-04-12T22:11:48.958Z,98503.91
2023-04-12T22:14:16.341Z,98511.19
2023-04-12T22:16:44.029Z,98511.66
2023-04-12T22:19:11.628Z,98510.28
2023-04-12T22:21:40.030Z,98522.25
2023-04-12T22:24:08.093Z,98527.06
2023-04-12T22:26:35.521Z,98532.69
2023-04-12T22:29:04.367Z,98540.34
2023-04-12T22:31:33.817Z,98540.41
2023-04-12T22:34:01.672Z,98550.78
2023-04-12T22:36:29.698Z,98544.50
2023-04-12T22:38:57.280Z,98553.25
2023-04-12T22:41:29.017Z,98552.59
2023-04-12T22:44:02.778Z,98548.06
2023-04-12T22:46:32.767Z,98553.19
2023-04-12T22:49:01.302Z,98554.97
2023-04-12T22:51:28.685Z,98560.91
2023-04-12T22:53:56.689Z,98556.13
2023-04-12T22:56:25.363Z,98563.00
2023-04-12T22:58:53.652Z,98556.63
2023-04-12T23:01:21.415Z,98558.81
2023-04-12T23:03:50.163Z,98562.44
2023-04-12T23:06:19.561Z,98566.19
2023-04-12T23:08:49.482Z,98577.69
2023-04-12T23:11:16.837Z,98579.81
2023-04-12T23:13:44.226Z,98589.13
2023-04-12T23:16:11.660Z,98591.69
2023-04-12T23:18:39.611Z,98591.97
2023-04-12T23:21:10.990Z,98593.53
2023-04-12T23:23:38.504Z,98602.41
2023-04-12T23:26:06.390Z,98594.81
2023-04-12T23:28:34.305Z,98605.91
2023-04-12T23:31:01.814Z,98596.94
2023-04-12T23:33:29.514Z,98613.84
2023-04-12T23:35:56.983Z,98613.84
2023-04-12T23:38:31.891Z,98608.25
2023-04-12T23:41:00.337Z,98610.63
2023-04-12T23:43:28.165Z,98608.22
2023-04-12T23:45:55.906Z,98608.16
2023-04-12T23:48:24.238Z,98606.16
2023-04-12T23:50:52.056Z,98604.41
2023-04-12T23:53:20.420Z,98601.03
2023-04-12T23:55:50.971Z,98595.47
2023-04-12T23:58:19.386Z,98589.91
